createdAt,value
2022-12-25T00:01:44.840Z,98738.75
2022-12-25T00:04:12.152Z,98729.19
2022-12-25T00:06:39.448Z,98729.19
2022-12-25T00:09:06.522Z,98721.47
2022-12-25T00:11:33.634Z,98728.25
2022-12-25T00:14:00.725Z,98718.88
2022-12-25T00:16:27.882Z,98719.75
2022-12-25T00:18:55.048Z,98716.19
2022-12-25T00:21:22.128Z,98714.53
2022-12-25T00:23:49.196Z,98712.88
2022-12-25T00:26:16.290Z,98713.59
2022-12-25T00:28:43.377Z,98718.78
2022-12-25T00:31:10.556Z,98718.88
2022-12-25T00:33:37.680Z,98717.22
2022-12-25T00:36:06.228Z,98718.88
2022-12-25T00:38:33.306Z,98717.97
2022-12-25T00:41:00.396Z,98722.34
2022-12-25T00:43:27.504Z,98711.09
2022-12-25T00:45:55.130Z,98723.38
2022-12-25T00:48:22.237Z,98717.22
2022-12-25T00:50:49.301Z,98716.28
2022-12-25T00:53:16.441Z,98716.41
2022-12-25T00:55:43.519Z,98723.25
2022-12-25T00:58:10.619Z,98728.44
2022-12-25T01:00:37.724Z,98731.03
2022-12-25T01:03:04.831Z,98732.72
2022-12-25T01:05:32.013Z,98727.63
2022-12-25T01:07:59.112Z,98732.94
2022-12-25T01:10:26.234Z,98739.78
2022-12-25T01:12:53.411Z,98732.09
2022-12-25T01:15:20.618Z,98730.22
2022-12-25T01:17:47.693Z,98725.13
2022-12-25T01:20:14.765Z,98720.84
2022-12-25T01:22:41.931Z,98726.78
2022-12-25T01:25:09.231Z,98738.13
2022-12-25T01:27:36.309Z,98735.53
2022-12-25T01:30:03.422Z,98744.16
2022-12-25T01:32:30.512Z,98742.50
2022-12-25T01:34:57.573Z,98736.44
2022-12-25T01:37:24.833Z,98735.59
2022-12-25T01:39:51.988Z,98727.94
2022-12-25T01:42:19.063Z,98724.59
2022-12-25T01:44:46.189Z,98727.00
2022-12-25T01:47:13.253Z,98727.00
2022-12-25T01:49:40.354Z,98734.91
2022-12-25T01:52:10.635Z,98737.50
2022-12-25T01:54:37.921Z,98737.50
2022-12-25T01:57:05.004Z,98739.16
2022-12-25T01:59:32.068Z,98741.88
2022-12-25T02:01:59.302Z,98742.78
2022-12-25T02:04:38.649Z,98742.78
2022-12-25T02:07:06.076Z,98729.06
2022-12-25T02:09:33.132Z,98733.44
2022-12-25T02:12:00.456Z,98731.69
2022-12-25T02:14:27.611Z,98742.06
2022-12-25T02:16:57.956Z,98737.81
2022-12-25T02:19:25.824Z,98748.19
2022-12-25T02:21:52.959Z,98747.34
2022-12-25T02:24:20.063Z,98741.31
2022-12-25T02:26:47.113Z,98739.53
2022-12-25T02:29:15.840Z,98735.28
2022-12-25T02:31:42.983Z,98743.09
2022-12-25T02:34:10.131Z,98744.75
2022-12-25T02:36:37.232Z,98740.50
2022-12-25T02:39:23.149Z,98745.69
2022-12-25T02:41:50.240Z,98736.13
2022-12-25T02:44:36.175Z,98740.69
2022-12-25T02:47:21.708Z,98745.88
2022-12-25T02:50:07.624Z,98745.88
2022-12-25T02:52:53.325Z,98742.56
2022-12-25T02:55:39.204Z,98733.84
2022-12-25T02:58:24.954Z,98729.59
2022-12-25T03:01:10.652Z,98727.06
2022-12-25T03:03:56.788Z,98728.84
2022-12-25T03:06:42.413Z,98733.13
2022-12-25T03:09:28.062Z,98730.63
2022-12-25T03:11:55.124Z,98727.19
2022-12-25T03:14:41.013Z,98717.63
2022-12-25T03:17:08.143Z,98710.78
2022-12-25T03:19:54.051Z,98711.63
2022-12-25T03:22:40.260Z,98715.97
2022-12-25T03:25:25.796Z,98714.22
2022-12-25T03:27:52.873Z,98706.53
2022-12-25T03:30:38.504Z,98710.03
2022-12-25T03:33:23.337Z,98700.47
2022-12-25T03:36:02.885Z,98698.84
2022-12-25T03:38:56.397Z,98697.19
2022-12-25T03:41:42.060Z,98685.84
2022-12-25T03:44:32.016Z,98680.78
2022-12-25T03:47:17.467Z,98676.50
2022-12-25T03:50:03.481Z,98680.78
2022-12-25T03:52:49.253Z,98684.19
2022-12-25T03:55:34.784Z,98680.03
2022-12-25T03:58:20.486Z,98677.44
2022-12-25T04:01:06.161Z,98681.91
2022-12-25T04:03:52.174Z,98686.06
2022-12-25T04:06:38.017Z,98677.56
2022-12-25T04:09:23.699Z,98682.75
2022-12-25T04:12:09.341Z,98688.03
2022-12-25T04:14:55.341Z,98692.31
2022-12-25T04:17:41.252Z,98689.06
2022-12-25T04:20:27.248Z,98687.19
2022-12-25T04:23:12.881Z,98688.03
2022-12-25T04:25:58.843Z,98689.06
2022-12-25T04:28:44.617Z,98699.47
2022-12-25T04:31:30.733Z,98715.94
2022-12-25T04:34:16.679Z,98717.63
2022-12-25T04:36:43.797Z,98705.69
2022-12-25T04:39:10.868Z,98717.72
2022-12-25T04:41:37.955Z,98706.41
2022-12-25T04:44:05.185Z,98723.03
2022-12-25T04:46:32.353Z,98723.03
2022-12-25T04:48:59.519Z,98721.38
2022-12-25T04:51:26.777Z,98724.78
2022-12-25T04:53:54.714Z,98722.19
2022-12-25T04:56:22.073Z,98717.09
2022-12-25T04:58:49.440Z,98723.09
2022-12-25T05:01:17.037Z,98721.44
2022-12-25T05:03:44.405Z,98719.69
2022-12-25T05:06:11.615Z,98715.44
2022-12-25T05:08:38.875Z,98711.19
2022-12-25T05:11:05.958Z,98707.75
2022-12-25T05:13:33.016Z,98701.81
2022-12-25T05:16:00.125Z,98696.63
2022-12-25T05:18:27.302Z,98693.22
2022-12-25T05:20:54.636Z,98694.88
2022-12-25T05:23:22.130Z,98681.19
2022-12-25T05:25:49.191Z,98677.63
2022-12-25T05:28:16.253Z,98675.03
2022-12-25T05:30:43.418Z,98671.69
2022-12-25T05:33:10.804Z,98670.06
2022-12-25T05:35:38.197Z,98665.81
2022-12-25T05:38:05.433Z,98667.47
2022-12-25T05:40:32.509Z,98673.47
2022-12-25T05:42:59.632Z,98670.16
2022-12-25T05:45:26.692Z,98667.66
2022-12-25T05:47:53.803Z,98677.94
2022-12-25T05:50:20.987Z,98669.41
2022-12-25T05:52:48.080Z,98676.38
2022-12-25T05:55:15.176Z,98667.88
2022-12-25T05:57:42.775Z,98679.09
2022-12-25T06:00:09.853Z,98679.09
2022-12-25T06:02:37.212Z,98677.41
2022-12-25T06:05:04.512Z,98678.25
2022-12-25T06:07:31.582Z,98686.03
2022-12-25T06:09:58.807Z,98690.50
2022-12-25T06:12:25.861Z,98681.06
2022-12-25T06:14:52.939Z,98684.47
2022-12-25T06:17:20.068Z,98682.81
2022-12-25T06:19:47.138Z,98675.88
2022-12-25T06:22:14.208Z,98687.16
2022-12-25T06:24:41.607Z,98687.16
2022-12-25T06:27:08.666Z,98679.47
2022-12-25T06:29:36.080Z,98680.41
2022-12-25T06:32:03.205Z,98682.91
2022-12-25T06:34:30.312Z,98668.28
2022-12-25T06:36:57.409Z,98676.88
2022-12-25T06:39:25.595Z,98675.31
2022-12-25T06:41:52.781Z,98684.03
2022-12-25T06:44:19.854Z,98685.69
2022-12-25T06:46:46.923Z,98701.19
2022-12-25T06:49:13.990Z,98697.75
2022-12-25T06:51:41.084Z,98696.94
2022-12-25T06:54:08.135Z,98693.59
2022-12-25T06:56:35.270Z,98697.13
2022-12-25T06:59:02.357Z,98697.84
2022-12-25T07:01:29.527Z,98692.84
2022-12-25T07:03:56.670Z,98684.97
2022-12-25T07:06:23.735Z,98689.41
2022-12-25T07:08:50.815Z,98687.66
2022-12-25T07:11:17.879Z,98692.03
2022-12-25T07:13:44.975Z,98693.69
2022-12-25T07:16:12.178Z,98690.38
2022-12-25T07:18:39.292Z,98696.38
2022-12-25T07:21:06.349Z,98702.50
2022-12-25T07:23:33.476Z,98712.97
2022-12-25T07:26:00.679Z,98703.44
2022-12-25T07:28:27.773Z,98704.28
2022-12-25T07:30:54.837Z,98704.28
2022-12-25T07:33:21.953Z,98706.88
2022-12-25T07:35:49.032Z,98710.38
2022-12-25T07:38:16.118Z,98706.94
2022-12-25T07:40:43.214Z,98699.16
2022-12-25T07:43:10.271Z,98693.97
2022-12-25T07:45:37.627Z,98684.66
2022-12-25T07:48:05.877Z,98683.72
2022-12-25T07:50:34.622Z,98675.09
2022-12-25T07:53:01.696Z,98673.44
2022-12-25T07:55:28.858Z,98667.22
2022-12-25T07:57:55.928Z,98673.34
2022-12-25T08:00:23.067Z,98670.75
2022-12-25T08:02:50.523Z,98673.34
2022-12-25T08:05:17.789Z,98685.38
2022-12-25T08:07:44.877Z,98687.97
2022-12-25T08:10:11.937Z,98689.63
2022-12-25T08:12:38.995Z,98685.28
2022-12-25T08:15:06.085Z,98691.38
2022-12-25T08:17:33.163Z,98683.59
2022-12-25T08:20:00.258Z,98683.53
2022-12-25T08:22:27.333Z,98678.41
2022-12-25T08:24:54.390Z,98670.63
2022-12-25T08:27:21.452Z,98668.88
2022-12-25T08:29:48.518Z,98662.84
2022-12-25T08:32:15.578Z,98657.78
2022-12-25T08:34:42.865Z,98655.06
2022-12-25T08:37:10.123Z,98672.31
2022-12-25T08:39:37.258Z,98671.25
2022-12-25T08:42:04.316Z,98667.84
2022-12-25T08:44:31.369Z,98666.06
2022-12-25T08:46:58.442Z,98672.09
2022-12-25T08:49:27.446Z,98672.94
2022-12-25T08:51:54.629Z,98673.78
2022-12-25T08:54:21.733Z,98674.50
2022-12-25T08:56:48.808Z,98681.38
2022-12-25T08:59:15.862Z,98679.59
2022-12-25T09:01:43.034Z,98669.22
2022-12-25T09:04:10.160Z,98674.41
2022-12-25T09:06:37.227Z,98678.66
2022-12-25T09:09:04.403Z,98677.81
2022-12-25T09:11:31.492Z,98674.41
2022-12-25T09:13:58.555Z,98672.53
2022-12-25T09:16:25.655Z,98682.91
2022-12-25T09:18:52.894Z,98670.75
2022-12-25T09:21:20.011Z,98671.69
2022-12-25T09:23:47.142Z,98675.13
2022-12-25T09:26:14.289Z,98674.28
2022-12-25T09:28:46.590Z,98673.16
2022-12-25T09:31:17.626Z,98680.22
2022-12-25T09:33:44.805Z,98689.66
2022-12-25T09:36:11.913Z,98693.84
2022-12-25T09:38:39.047Z,98687.78
2022-12-25T09:41:06.175Z,98678.25
2022-12-25T09:43:33.263Z,98662.69
2022-12-25T09:46:00.423Z,98660.09
2022-12-25T09:48:27.513Z,98658.31
2022-12-25T09:50:54.591Z,98656.56
2022-12-25T09:53:22.048Z,98641.00
2022-12-25T09:55:49.124Z,98635.81
2022-12-25T09:58:16.239Z,98626.13
2022-12-25T10:00:43.366Z,98631.22
2022-12-25T10:03:10.521Z,98628.66
2022-12-25T10:05:37.663Z,98615.66
2022-12-25T10:08:04.764Z,98603.50
2022-12-25T10:10:31.830Z,98587.94
2022-12-25T10:12:58.892Z,98579.22
2022-12-25T10:15:25.947Z,98571.44
2022-12-25T10:17:53.000Z,98545.41
2022-12-25T10:20:20.283Z,98537.59
2022-12-25T10:22:47.388Z,98539.25
2022-12-25T10:25:14.452Z,98546.09
2022-12-25T10:27:41.562Z,98553.88
2022-12-25T10:30:08.651Z,98556.28
2022-12-25T10:32:35.710Z,98546.72
2022-12-25T10:35:02.755Z,98538.94
2022-12-25T10:37:29.808Z,98555.34
2022-12-25T10:39:57.359Z,98560.44
2022-12-25T10:42:24.459Z,98581.19
2022-12-25T10:44:51.545Z,98593.25
2022-12-25T10:47:18.610Z,98590.63
2022-12-25T10:49:45.678Z,98589.63
2022-12-25T10:52:12.957Z,98594.88
2022-12-25T10:54:40.254Z,98587.94
2022-12-25T10:57:07.324Z,98591.47
2022-12-25T10:59:34.476Z,98588.75
2022-12-25T11:02:01.596Z,98585.25
2022-12-25T11:04:28.885Z,98579.22
2022-12-25T11:06:55.980Z,98579.09
2022-12-25T11:09:23.036Z,98579.22
2022-12-25T11:11:50.150Z,98575.69
2022-12-25T11:14:17.218Z,98562.59
2022-12-25T11:16:44.395Z,98558.22
2022-12-25T11:19:11.539Z,98550.56
2022-12-25T11:21:38.634Z,98541.00
2022-12-25T11:24:05.704Z,98533.13
2022-12-25T11:26:32.839Z,98521.88
2022-12-25T11:28:59.902Z,98539.84
2022-12-25T11:31:26.988Z,98530.28
2022-12-25T11:33:54.065Z,98516.41
2022-12-25T11:36:21.273Z,98520.72
2022-12-25T11:38:48.348Z,98513.69
2022-12-25T11:41:15.416Z,98509.44
2022-12-25T11:43:42.508Z,98501.75
2022-12-25T11:46:10.457Z,98505.16
2022-12-25T11:48:37.541Z,98504.13
2022-12-25T11:51:04.600Z,98508.38
2022-12-25T11:53:31.698Z,98493.75
2022-12-25T11:55:58.765Z,98490.19
2022-12-25T11:58:25.827Z,98478.06
2022-12-25T12:00:52.939Z,98483.16
2022-12-25T12:03:20.084Z,98475.34
2022-12-25T12:05:47.314Z,98468.50
2022-12-25T12:08:15.552Z,98462.38
2022-12-25T12:10:42.708Z,98453.75
2022-12-25T12:13:09.871Z,98451.03
2022-12-25T12:15:37.001Z,98449.28
2022-12-25T12:18:04.055Z,98457.78
2022-12-25T12:20:31.135Z,98456.16
2022-12-25T12:22:58.253Z,98442.34
2022-12-25T12:25:25.346Z,98425.00
2022-12-25T12:27:52.451Z,98419.69
2022-12-25T12:30:19.514Z,98438.78
2022-12-25T12:32:47.736Z,98436.19
2022-12-25T12:35:15.022Z,98430.06
2022-12-25T12:37:42.157Z,98428.28
2022-12-25T12:40:09.221Z,98423.00
2022-12-25T12:42:36.361Z,98420.41
2022-12-25T12:45:03.429Z,98419.47
2022-12-25T12:47:30.530Z,98416.97
2022-12-25T12:49:57.601Z,98408.13
2022-12-25T12:52:24.697Z,98397.75
2022-12-25T12:54:51.752Z,98396.19
2022-12-25T12:57:18.817Z,98402.94
2022-12-25T12:59:46.971Z,98399.38
2022-12-25T13:02:14.313Z,98392.47
2022-12-25T13:04:41.431Z,98401.91
2022-12-25T13:07:08.522Z,98408.84
2022-12-25T13:09:35.584Z,98409.69
2022-12-25T13:12:02.653Z,98405.31
2022-12-25T13:14:29.753Z,98402.72
2022-12-25T13:16:56.861Z,98400.00
2022-12-25T13:19:24.001Z,98409.69
2022-12-25T13:21:51.073Z,98408.66
2022-12-25T13:24:18.166Z,98412.97
2022-12-25T13:26:45.225Z,98408.75
2022-12-25T13:29:12.346Z,98393.06
2022-12-25T13:31:39.415Z,98391.38
2022-12-25T13:34:06.704Z,98387.88
2022-12-25T13:36:33.755Z,98386.09
2022-12-25T13:39:00.820Z,98382.56
2022-12-25T13:41:46.353Z,98374.03
2022-12-25T13:44:13.478Z,98376.53
2022-12-25T13:46:40.540Z,98366.16
2022-12-25T13:49:07.623Z,98360.97
2022-12-25T13:51:34.680Z,98364.25
2022-12-25T13:54:01.736Z,98373.00
2022-12-25T13:56:28.799Z,98375.47
2022-12-25T13:58:55.847Z,98383.16
2022-12-25T14:01:22.954Z,98372.03
2022-12-25T14:03:50.100Z,98372.88
2022-12-25T14:06:17.206Z,98380.56
2022-12-25T14:08:44.270Z,98365.94
2022-12-25T14:11:11.378Z,98375.47
2022-12-25T14:13:38.582Z,98371.13
2022-12-25T14:16:05.652Z,98380.56
2022-12-25T14:18:32.724Z,98391.03
2022-12-25T14:20:59.918Z,98382.44
2022-12-25T14:23:27.022Z,98385.84
2022-12-25T14:25:54.120Z,98379.75
2022-12-25T14:28:21.262Z,98390.94
2022-12-25T14:30:48.387Z,98393.53
2022-12-25T14:33:15.444Z,98387.53
2022-12-25T14:35:42.509Z,98385.75
2022-12-25T14:38:09.560Z,98380.44
2022-12-25T14:40:36.620Z,98384.81
2022-12-25T14:43:03.693Z,98377.03
2022-12-25T14:45:30.951Z,98380.44
2022-12-25T14:47:58.873Z,98376.06
2022-12-25T14:50:26.007Z,98371.81
2022-12-25T14:52:53.080Z,98367.59
2022-12-25T14:55:20.142Z,98370.06
2022-12-25T14:57:47.213Z,98365.81
2022-12-25T15:00:14.267Z,98364.16
2022-12-25T15:02:41.636Z,98363.94
2022-12-25T15:05:08.833Z,98344.09
2022-12-25T15:07:35.896Z,98337.97
2022-12-25T15:12:54.268Z,98329.44
2022-12-25T15:15:21.339Z,98341.84
2022-12-25T15:17:49.960Z,98342.31
2022-12-25T15:20:17.013Z,98355.91
2022-12-25T15:25:31.629Z,98362.78
2022-12-25T15:27:58.721Z,98356.50
2022-12-25T15:30:25.786Z,98354.97
2022-12-25T15:32:52.858Z,98343.75
2022-12-25T15:35:19.930Z,98346.47
2022-12-25T15:37:47.065Z,98344.69
2022-12-25T15:40:14.544Z,98342.91
2022-12-25T15:42:41.611Z,98348.94
2022-12-25T15:45:08.674Z,98356.72
2022-12-25T15:47:35.733Z,98356.84
2022-12-25T15:50:02.793Z,98355.91
2022-12-25T15:52:29.897Z,98351.53
2022-12-25T15:54:56.963Z,98354.97
2022-12-25T15:57:24.346Z,98360.19
2022-12-25T15:59:51.392Z,98361.91
2022-12-25T16:02:18.645Z,98361.91
2022-12-25T16:04:45.906Z,98358.41
2022-12-25T16:07:12.976Z,98367.13
2022-12-25T16:09:40.045Z,98367.97
2022-12-25T16:12:07.104Z,98362.78
2022-12-25T16:14:34.168Z,98359.31
2022-12-25T16:17:01.264Z,98353.31
2022-12-25T16:19:28.324Z,98356.72
2022-12-25T16:21:55.924Z,98361.91
2022-12-25T16:24:22.992Z,98359.22
2022-12-25T16:26:50.059Z,98363.59
2022-12-25T16:29:17.129Z,98354.13
2022-12-25T16:31:44.274Z,98354.03
2022-12-25T16:34:11.358Z,98360.06
2022-12-25T16:36:39.039Z,98350.63
2022-12-25T16:39:07.276Z,98345.41
2022-12-25T16:41:34.353Z,98344.59
2022-12-25T16:44:01.404Z,98341.13
2022-12-25T16:46:28.703Z,98347.88
2022-12-25T16:48:55.810Z,98353.22
2022-12-25T16:51:23.545Z,98359.22
2022-12-25T16:53:50.614Z,98347.88
2022-12-25T16:56:17.737Z,98329.84
2022-12-25T16:58:46.240Z,98329.84
2022-12-25T17:01:13.326Z,98331.47
2022-12-25T17:03:40.485Z,98338.44
2022-12-25T17:06:07.623Z,98343.50
2022-12-25T17:08:34.686Z,98344.34
2022-12-25T17:11:01.739Z,98346.94
2022-12-25T17:13:28.798Z,98346.94
2022-12-25T17:15:55.893Z,98341.75
2022-12-25T17:18:23.075Z,98336.69
2022-12-25T17:20:50.251Z,98334.81
2022-12-25T17:23:17.350Z,98340.91
2022-12-25T17:25:44.411Z,98331.47
2022-12-25T17:28:11.470Z,98328.75
2022-12-25T17:30:38.550Z,98330.53
2022-12-25T17:33:05.624Z,98331.34
2022-12-25T17:35:32.712Z,98325.34
2022-12-25T17:37:59.813Z,98314.94
2022-12-25T17:40:26.915Z,98320.13
2022-12-25T17:42:54.053Z,98327.00
2022-12-25T17:45:21.115Z,98328.75
2022-12-25T17:47:48.356Z,98329.59
2022-12-25T17:50:15.432Z,98322.75
2022-12-25T17:52:42.512Z,98327.13
2022-12-25T17:55:09.567Z,98331.34
2022-12-25T17:57:36.668Z,98328.75
2022-12-25T18:00:03.765Z,98313.19
2022-12-25T18:02:30.996Z,98316.72
2022-12-25T18:04:58.224Z,98312.47
2022-12-25T18:07:25.284Z,98303.88
2022-12-25T18:09:52.331Z,98309.97
2022-12-25T18:12:19.389Z,98309.88
2022-12-25T18:14:46.467Z,98311.66
2022-12-25T18:17:13.524Z,98303.88
2022-12-25T18:19:40.577Z,98302.09
2022-12-25T18:22:07.696Z,98307.38
2022-12-25T18:24:34.748Z,98313.53
2022-12-25T18:27:01.804Z,98313.53
2022-12-25T18:29:28.859Z,98323.22
2022-12-25T18:31:56.006Z,98316.25
2022-12-25T18:34:23.379Z,98311.16
2022-12-25T18:36:50.446Z,98326.41
2022-12-25T18:39:17.583Z,98319.53
2022-12-25T18:42:03.497Z,98320.50
2022-12-25T18:44:30.573Z,98321.31
2022-12-25T18:46:57.624Z,98323.91
2022-12-25T18:49:24.692Z,98320.63
2022-12-25T18:51:51.750Z,98317.88
2022-12-25T18:54:19.269Z,98329.22
2022-12-25T18:56:49.519Z,98336.19
2022-12-25T18:59:20.053Z,98331.69
2022-12-25T19:01:47.258Z,98331.91
2022-12-25T19:04:17.365Z,98321.53
2022-12-25T19:06:45.239Z,98312.91
2022-12-25T19:09:12.325Z,98310.44
2022-12-25T19:11:46.134Z,98305.13
2022-12-25T19:14:13.775Z,98304.44
2022-12-25T19:16:40.904Z,98306.06
2022-12-25T19:19:08.025Z,98296.75
2022-12-25T19:21:35.092Z,98302.88
2022-12-25T19:24:02.177Z,98295.81
2022-12-25T19:26:29.231Z,98293.31
2022-12-25T19:28:56.312Z,98290.63
2022-12-25T19:31:23.453Z,98282.84
2022-12-25T19:33:50.553Z,98279.50
2022-12-25T19:36:17.630Z,98277.75
2022-12-25T19:38:44.706Z,98283.88
2022-12-25T19:41:11.807Z,98281.41
2022-12-25T19:43:38.930Z,98276.09
2022-12-25T19:46:06.058Z,98284.84
2022-12-25T19:48:33.175Z,98289.19
2022-12-25T19:51:00.240Z,98290.94
2022-12-25T19:53:27.320Z,98297.91
2022-12-25T19:55:54.440Z,98311.72
2022-12-25T19:58:21.523Z,98323.19
2022-12-25T20:00:48.632Z,98324.81
2022-12-25T20:03:15.802Z,98327.41
2022-12-25T20:05:42.928Z,98319.63
2022-12-25T20:08:10.519Z,98324.00
2022-12-25T20:10:37.568Z,98331.06
2022-12-25T20:13:04.635Z,98340.53
2022-12-25T20:15:31.696Z,98350.91
2022-12-25T20:17:58.776Z,98352.66
2022-12-25T20:20:25.843Z,98347.47
2022-12-25T20:22:52.898Z,98349.22
2022-12-25T20:25:19.964Z,98353.59
2022-12-25T20:27:47.035Z,98353.72
2022-12-25T20:30:14.099Z,98351.94
2022-12-25T20:32:46.448Z,98353.00
2022-12-25T20:35:17.138Z,98355.59
2022-12-25T20:37:44.218Z,98359.84
2022-12-25T20:40:11.283Z,98359.75
2022-12-25T20:42:38.340Z,98361.59
2022-12-25T20:45:07.448Z,98364.34
2022-12-25T20:47:34.578Z,98356.53
2022-12-25T20:50:01.669Z,98363.50
2022-12-25T20:52:28.833Z,98358.41
2022-12-25T20:54:55.906Z,98360.09
2022-12-25T20:57:23.034Z,98367.03
2022-12-25T20:59:50.215Z,98361.84
2022-12-25T21:02:34.885Z,98362.78
2022-12-25T21:05:03.228Z,98359.34
2022-12-25T21:07:30.338Z,98356.75
2022-12-25T21:09:57.408Z,98356.97
2022-12-25T21:12:24.472Z,98362.91
2022-12-25T21:14:51.534Z,98356.06
2022-12-25T21:17:18.741Z,98343.06
2022-12-25T21:19:45.837Z,98350.00
2022-12-25T21:22:12.912Z,98358.66
2022-12-25T21:24:39.964Z,98365.59
2022-12-25T21:27:07.056Z,98364.75
2022-12-25T21:29:34.116Z,98352.59
2022-12-25T21:32:19.960Z,98353.69
2022-12-25T21:34:47.039Z,98340.69
2022-12-25T21:37:14.104Z,98334.69
2022-12-25T21:39:41.212Z,98345.97
2022-12-25T21:42:08.283Z,98348.56
2022-12-25T21:44:35.333Z,98346.94
2022-12-25T21:47:02.393Z,98347.75
2022-12-25T21:49:47.929Z,98341.88
2022-12-25T21:52:15.006Z,98335.84
2022-12-25T21:54:42.075Z,98335.94
2022-12-25T21:57:09.139Z,98335.94
2022-12-25T21:59:36.212Z,98337.50
2022-12-25T22:02:11.097Z,98347.97
2022-12-25T22:04:38.640Z,98354.09
2022-12-25T22:07:17.698Z,98359.31
2022-12-25T22:09:44.938Z,98366.25
2022-12-25T22:12:34.399Z,98370.63
2022-12-25T22:15:06.799Z,98376.78
2022-12-25T22:17:52.682Z,98385.38
2022-12-25T22:20:19.765Z,98376.78
2022-12-25T22:22:46.831Z,98382.06
2022-12-25T22:25:13.950Z,98379.44
2022-12-25T22:27:41.111Z,98385.59
2022-12-25T22:30:08.203Z,98393.25
2022-12-25T22:32:35.271Z,98392.56
2022-12-25T22:35:02.409Z,98392.44
2022-12-25T22:37:29.495Z,98395.84
2022-12-25T22:39:56.562Z,98402.94
2022-12-25T22:42:23.707Z,98406.34
2022-12-25T22:44:50.759Z,98412.50
2022-12-25T22:47:17.962Z,98416.34
2022-12-25T22:49:45.049Z,98423.28
2022-12-25T22:52:12.193Z,98423.19
2022-12-25T22:54:39.322Z,98418.84
2022-12-25T22:57:06.430Z,98411.88
2022-12-25T22:59:33.506Z,98413.53
2022-12-25T23:02:00.874Z,98407.72
2022-12-25T23:04:28.187Z,98406.06
2022-12-25T23:06:55.343Z,98400.75
2022-12-25T23:09:24.798Z,98407.50
2022-12-25T23:11:52.104Z,98410.19
2022-12-25T23:14:37.989Z,98409.38
2022-12-25T23:17:05.048Z,98413.75
2022-12-25T23:19:50.669Z,98417.28
2022-12-25T23:22:36.247Z,98418.94
2022-12-25T23:25:21.828Z,98410.31
2022-12-25T23:27:48.890Z,98409.50
2022-12-25T23:30:15.968Z,98409.59
2022-12-25T23:32:43.091Z,98413.88
2022-12-25T23:35:10.175Z,98418.31
2022-12-25T23:37:37.273Z,98408.06
2022-12-25T23:40:04.378Z,98412.19
2022-12-25T23:42:31.540Z,98416.53
2022-12-25T23:44:58.627Z,98428.59
2022-12-25T23:47:25.703Z,98429.53
2022-12-25T23:49:52.772Z,98433.88
2022-12-25T23:52:19.868Z,98439.06
2022-12-25T23:54:46.945Z,98442.63
2022-12-25T23:57:14.012Z,98450.41
2022-12-25T23:59:41.097Z,98446.25
